createdAt,value
2018-05-31T00:14:53.591Z,90.01
2018-05-31T00:35:26.685Z,92.69
2018-05-31T00:56:14.860Z,96.31
2018-05-31T01:16:47.062Z,96.57
2018-05-31T01:37:21.408Z,96.56
2018-05-31T01:57:54.533Z,97.70
2018-05-31T02:18:30.727Z,98.04
2018-05-31T02:39:05.257Z,100.00
2018-05-31T02:59:38.197Z,96.14
2018-05-31T03:20:12.685Z,99.74
2018-05-31T03:40:44.752Z,100.00
2018-05-31T04:01:21.868Z,100.00
2018-05-31T04:21:54.073Z,99.73
2018-05-31T04:42:28.572Z,100.00
2018-05-31T05:03:00.624Z,100.00
2018-05-31T05:23:33.744Z,100.00
2018-05-31T05:44:07.783Z,100.00
2018-05-31T06:04:39.067Z,97.71
2018-05-31T06:25:13.662Z,98.91
2018-05-31T06:45:46.538Z,98.24
2018-05-31T07:06:18.739Z,100.00
2018-05-31T07:26:54.012Z,98.71
2018-05-31T07:47:28.057Z,93.68
2018-05-31T08:08:01.482Z,94.58
2018-05-31T08:28:36.759Z,92.55
2018-05-31T08:49:10.169Z,91.53
2018-05-31T09:09:45.151Z,88.47
2018-05-31T09:30:17.352Z,87.80
2018-05-31T09:50:53.543Z,82.41
2018-05-31T10:11:25.993Z,86.69
2018-05-31T10:32:06.265Z,82.07
2018-05-31T10:52:40.488Z,73.54
2018-05-31T11:13:14.328Z,72.89
2018-05-31T11:33:47.917Z,63.64
2018-05-31T11:54:20.887Z,64.55
2018-05-31T12:14:53.089Z,65.43
2018-05-31T12:35:28.967Z,67.86
2018-05-31T12:56:04.547Z,59.97
2018-05-31T13:16:37.668Z,64.36
2018-05-31T13:37:12.943Z,61.09
2018-05-31T13:57:48.217Z,59.29
2018-05-31T14:18:20.417Z,61.13
2018-05-31T14:38:52.861Z,61.49
2018-05-31T14:59:24.828Z,59.96
2018-05-31T15:19:57.938Z,53.69
2018-05-31T15:40:29.227Z,56.61
2018-05-31T16:01:02.340Z,63.95
2018-05-31T16:21:34.540Z,62.16
2018-05-31T16:42:09.100Z,54.32
2018-05-31T17:02:43.246Z,55.41
2018-05-31T17:23:20.358Z,56.09
2018-05-31T17:43:58.401Z,61.22
2018-05-31T18:04:25.683Z,70.18
2018-05-31T18:25:01.880Z,74.77
2018-05-31T18:45:34.072Z,76.96
2018-05-31T19:06:09.354Z,77.79
2018-05-31T19:26:41.549Z,80.14
2018-05-31T19:47:18.760Z,81.50
2018-05-31T20:07:52.096Z,83.77
2018-05-31T20:28:27.538Z,86.34
2018-05-31T20:49:00.489Z,87.48
2018-05-31T21:09:33.619Z,90.47
2018-05-31T21:30:11.961Z,88.77
2018-05-31T21:50:53.072Z,90.55
2018-05-31T22:11:31.423Z,91.15
2018-05-31T22:32:04.842Z,96.63
2018-05-31T22:52:38.227Z,94.94
2018-05-31T23:13:15.446Z,96.86
2018-05-31T23:33:50.048Z,95.95
2018-05-31T23:54:21.636Z,98.51
